Time;durP1;ratioP1;P1;durP2;ratioP2;P2;SDS_P1;SDS_P2;PMS_P1;PMS_P2;Temp;Humidity;BMP_temperature;BMP_pressure;BME280_temperature;BME280_humidity;BME280_pressure;Samples;Min_cycle;Max_cycle;Signal;HPM_P1;HPM_P2
2024/03/24 00:01:33;;;;;;;5.45;2.17;;;;;;;;;;5054798;28;20060;-67
2024/03/24 00:03:59;;;;;;;6.18;1.90;;;;;;;;;;5057894;28;20044;-66
2024/03/24 00:06:25;;;;;;;4.00;1.42;;;;;;;;;;5037449;28;20056;-66
2024/03/24 00:08:51;;;;;;;9.65;2.13;;;;;;;;;;5047875;28;20113;-67
2024/03/24 00:11:20;;;;;;;4.05;1.90;;;;;;;;;;5074543;28;20075;-67
2024/03/24 00:13:45;;;;;;;4.80;1.55;;;;;;;;;;5044219;28;20068;-67
2024/03/24 00:16:12;;;;;;;4.32;1.90;;;;;;;;;;5038275;28;20063;-67
2024/03/24 00:18:38;;;;;;;9.18;2.05;;;;;;;;;;5040712;28;20076;-67
2024/03/24 00:21:05;;;;;;;5.82;1.92;;;;;;;;;;5036578;28;20271;-66
2024/03/24 00:23:32;;;;;;;5.50;2.03;;;;;;;;;;5058777;28;20057;-66
2024/03/24 00:25:59;;;;;;;5.88;1.98;;;;;;;;;;5054967;28;20063;-67
2024/03/24 00:28:26;;;;;;;8.57;2.22;;;;;;;;;;5042970;28;20048;-66
2024/03/24 00:30:53;;;;;;;11.27;1.85;;;;;;;;;;5056859;28;20053;-66
2024/03/24 00:33:19;;;;;;;6.05;1.75;;;;;;;;;;5043211;28;20060;-66
2024/03/24 00:35:45;;;;;;;9.32;1.98;;;;;;;;;;5036137;28;20064;-67
2024/03/24 00:38:13;;;;;;;8.65;1.83;;;;;;;;;;5046134;28;20150;-66
2024/03/24 00:40:42;;;;;;;7.15;2.03;;;;;;;;;;5038623;28;20061;-68
2024/03/24 00:43:07;;;;;;;3.65;1.27;;;;;;;;;;5052790;28;20067;-66
2024/03/24 00:45:35;;;;;;;5.55;1.63;;;;;;;;;;5027797;28;20061;-68
2024/03/24 00:48:01;;;;;;;6.05;2.33;;;;;;;;;;5041169;28;20053;-65
2024/03/24 00:50:28;;;;;;;5.90;2.08;;;;;;;;;;5042124;28;20064;-67
2024/03/24 00:52:54;;;;;;;5.13;1.67;;;;;;;;;;5051305;28;20063;-65
2024/03/24 00:55:20;;;;;;;6.55;2.20;;;;;;;;;;5038654;28;20061;-65
2024/03/24 00:57:46;;;;;;;6.70;2.40;;;;;;;;;;5061102;28;20178;-64
2024/03/24 01:00:14;;;;;;;8.05;2.20;;;;;;;;;;5037157;28;20040;-65
2024/03/24 01:02:56;;;;;;;5.30;2.05;;;;;;;;;;5055103;28;20053;-65
2024/03/24 01:05:23;;;;;;;7.45;2.22;;;;;;;;;;5038698;28;20064;-65
2024/03/24 01:07:49;;;;;;;7.38;2.28;;;;;;;;;;5044134;28;20048;-66
2024/03/24 01:10:16;;;;;;;5.13;2.20;;;;;;;;;;5041919;28;20155;-66
2024/03/24 01:12:43;;;;;;;6.00;2.05;;;;;;;;;;5038320;28;20127;-65
2024/03/24 01:15:10;;;;;;;4.05;1.75;;;;;;;;;;5039604;28;20071;-65
2024/03/24 01:17:36;;;;;;;5.60;1.85;;;;;;;;;;5039928;28;20052;-66
2024/03/24 01:20:05;;;;;;;2.75;1.50;;;;;;;;;;5059513;28;20515;-66
2024/03/24 01:22:30;;;;;;;3.72;1.70;;;;;;;;;;5044689;28;20052;-66
2024/03/24 01:24:59;;;;;;;3.65;1.42;;;;;;;;;;5033957;28;20045;-65
2024/03/24 01:27:24;;;;;;;;;;;;;;;;;;5058313;28;20078;-65
2024/03/24 01:29:51;;;;;;;5.32;2.20;;;;;;;;;;5055939;28;19935;-65
2024/03/24 01:32:17;;;;;;;5.53;1.90;;;;;;;;;;5040310;28;20113;-66
2024/03/24 01:34:45;;;;;;;5.03;1.70;;;;;;;;;;5040933;28;20113;-66
2024/03/24 01:37:13;;;;;;;4.38;1.80;;;;;;;;;;5042821;28;20064;-65
2024/03/24 01:39:44;;;;;;;6.80;2.17;;;;;;;;;;5040911;28;20113;-65
2024/03/24 01:42:09;;;;;;;3.90;1.95;;;;;;;;;;5040566;28;20080;-68
2024/03/24 01:44:36;;;;;;;6.88;2.13;;;;;;;;;;5041467;28;20234;-67
2024/03/24 01:47:02;;;;;;;6.93;2.17;;;;;;;;;;5013990;28;20180;-67
2024/03/24 01:49:29;;;;;;;7.00;2.38;;;;;;;;;;5056940;28;20056;-67
2024/03/24 01:51:55;;;;;;;4.93;2.28;;;;;;;;;;5041548;28;20056;-68
2024/03/24 01:54:24;;;;;;;5.15;2.10;;;;;;;;;;5042117;28;20060;-67
2024/03/24 01:56:49;;;;;;;5.47;2.40;;;;;;;;;;5019559;28;20060;-68
2024/03/24 01:59:16;;;;;;;6.05;2.33;;;;;;;;;;5040040;28;20083;-66
2024/03/24 02:01:42;;;;;;;6.20;2.20;;;;;;;;;;5041580;28;20653;-65
2024/03/24 02:04:09;;;;;;;6.80;2.38;;;;;;;;;;5039657;28;20052;-65
2024/03/24 02:06:35;;;;;;;6.20;2.05;;;;;;;;;;5037992;28;20245;-66
2024/03/24 02:09:02;;;;;;;7.50;2.42;;;;;;;;;;5036875;28;20199;-65
2024/03/24 02:11:30;;;;;;;12.60;2.28;;;;;;;;;;5041166;28;20056;-65
2024/03/24 02:13:57;;;;;;;8.38;2.30;;;;;;;;;;5041675;28;20064;-65
2024/03/24 02:16:23;;;;;;;6.43;2.15;;;;;;;;;;5051978;28;20057;-65
2024/03/24 02:18:50;;;;;;;5.43;2.28;;;;;;;;;;5033709;28;20049;-65
2024/03/24 02:21:16;;;;;;;7.22;2.90;;;;;;;;;;5055705;28;20057;-66
2024/03/24 02:23:44;;;;;;;5.80;2.28;;;;;;;;;;5039029;28;20079;-65
2024/03/24 02:26:09;;;;;;;4.32;1.88;;;;;;;;;;5029785;28;20059;-65
2024/03/24 02:28:42;;;;;;;6.80;2.30;;;;;;;;;;5039097;28;20056;-66
2024/03/24 02:31:07;;;;;;;7.38;2.30;;;;;;;;;;5037561;28;20053;-65
2024/03/24 02:33:34;;;;;;;6.95;2.40;;;;;;;;;;5039003;28;20056;-65
2024/03/24 02:36:00;;;;;;;5.32;2.25;;;;;;;;;;5026328;28;20150;-65
2024/03/24 02:38:27;;;;;;;3.05;1.75;;;;;;;;;;5049039;28;20385;-65
2024/03/24 02:40:54;;;;;;;3.10;1.40;;;;;;;;;;5031820;28;20072;-64
2024/03/24 02:43:20;;;;;;;7.80;1.80;;;;;;;;;;5040452;28;20056;-65
2024/03/24 02:45:54;;;;;;;6.88;1.70;;;;;;;;;;5051578;28;20059;-65
2024/03/24 02:48:22;;;;;;;3.28;1.50;;;;;;;;;;5056518;28;20052;-65
2024/03/24 02:50:47;;;;;;;6.28;2.00;;;;;;;;;;5049899;28;20065;-65
2024/03/24 02:53:14;;;;;;;3.90;1.42;;;;;;;;;;5040228;28;20061;-65
2024/03/24 03:00:46;;;;;;;4.38;1.63;;;;;;;;;;4946207;28;20046;-66
2024/03/24 03:03:13;;;;;;;7.10;1.60;;;;;;;;;;4950506;28;20061;-64
2024/03/24 03:05:41;;;;;;;4.55;1.60;;;;;;;;;;4980025;28;20049;-65
2024/03/24 03:08:08;;;;;;;6.10;1.30;;;;;;;;;;4964206;28;20330;-65
2024/03/24 03:10:35;;;;;;;4.72;1.30;;;;;;;;;;4983017;28;20050;-65
2024/03/24 03:13:00;;;;;;;6.35;1.80;;;;;;;;;;4977652;28;20058;-64
2024/03/24 03:15:28;;;;;;;7.63;1.45;;;;;;;;;;4958424;28;20077;-65
2024/03/24 03:17:55;;;;;;;4.90;1.27;;;;;;;;;;4982060;28;20155;-65
2024/03/24 03:20:21;;;;;;;6.63;1.48;;;;;;;;;;4973105;28;20082;-64
2024/03/24 03:22:47;;;;;;;6.15;1.33;;;;;;;;;;4941831;28;20153;-64
2024/03/24 03:25:14;;;;;;;3.60;1.38;;;;;;;;;;4971275;28;20366;-65
2024/03/24 03:27:41;;;;;;;3.85;1.45;;;;;;;;;;4964529;28;20042;-65
2024/03/24 03:30:08;;;;;;;5.82;1.60;;;;;;;;;;4983153;28;20050;-64
2024/03/24 03:32:34;;;;;;;6.13;1.55;;;;;;;;;;4936757;28;20055;-64
2024/03/24 03:35:02;;;;;;;2.95;1.10;;;;;;;;;;4981893;28;20054;-64
2024/03/24 03:37:29;;;;;;;3.42;1.20;;;;;;;;;;4960927;28;20061;-65
2024/03/24 03:39:55;;;;;;;3.25;1.58;;;;;;;;;;4974535;28;20123;-66
2024/03/24 03:42:23;;;;;;;5.10;1.30;;;;;;;;;;4957873;28;20494;-65
2024/03/24 03:44:50;;;;;;;4.20;1.42;;;;;;;;;;4981742;28;20050;-65
2024/03/24 03:47:17;;;;;;;6.05;1.40;;;;;;;;;;4975379;28;20136;-66
2024/03/24 03:49:50;;;;;;;5.35;1.92;;;;;;;;;;4978262;28;20136;-65
2024/03/24 03:52:17;;;;;;;5.30;1.67;;;;;;;;;;4971223;28;20062;-66
2024/03/24 03:54:44;;;;;;;2.70;1.08;;;;;;;;;;4976116;28;20150;-65
2024/03/24 03:57:10;;;;;;;2.03;0.95;;;;;;;;;;4969025;28;20317;-70
2024/03/24 03:59:36;;;;;;;2.70;0.95;;;;;;;;;;4961636;28;20085;-67
2024/03/24 04:02:02;;;;;;;4.68;0.88;;;;;;;;;;4941369;28;20062;-65
2024/03/24 04:04:30;;;;;;;4.20;0.80;;;;;;;;;;4948207;28;20047;-67
2024/03/24 04:06:59;;;;;;;6.35;1.20;;;;;;;;;;4945436;28;20047;-64
2024/03/24 04:09:27;;;;;;;3.03;1.00;;;;;;;;;;4941558;28;20051;-65
2024/03/24 04:11:52;;;;;;;3.38;0.85;;;;;;;;;;4932164;28;20058;-65
2024/03/24 04:14:19;;;;;;;2.10;0.60;;;;;;;;;;4946220;28;20215;-65
2024/03/24 04:16:45;;;;;;;3.28;0.90;;;;;;;;;;4945363;28;20065;-63
2024/03/24 04:19:12;;;;;;;2.75;0.73;;;;;;;;;;4966004;28;20047;-64
2024/03/24 04:21:38;;;;;;;1.80;0.82;;;;;;;;;;4935601;28;20158;-63
2024/03/24 04:24:05;;;;;;;4.18;0.85;;;;;;;;;;4950806;28;20054;-65
2024/03/24 04:26:32;;;;;;;2.13;0.85;;;;;;;;;;4949350;28;20051;-65
2024/03/24 04:28:59;;;;;;;0.98;0.68;;;;;;;;;;4949340;28;20177;-64
2024/03/24 04:31:24;;;;;;;1.95;0.57;;;;;;;;;;4954599;28;20050;-64
2024/03/24 04:33:51;;;;;;;2.95;0.85;;;;;;;;;;4956142;28;20070;-63
2024/03/24 04:36:18;;;;;;;2.22;0.80;;;;;;;;;;4949754;28;20061;-64
2024/03/24 04:38:44;;;;;;;0.85;0.50;;;;;;;;;;4952048;28;20081;-64
2024/03/24 04:41:11;;;;;;;2.53;0.70;;;;;;;;;;4908495;28;20063;-64
2024/03/24 04:43:40;;;;;;;2.08;0.63;;;;;;;;;;4953774;28;20038;-65
2024/03/24 04:46:07;;;;;;;0.90;0.52;;;;;;;;;;4947560;28;20176;-64
2024/03/24 04:48:34;;;;;;;0.50;0.50;;;;;;;;;;4952299;28;20070;-65
2024/03/24 04:50:59;;;;;;;2.45;0.60;;;;;;;;;;4963337;28;20073;-63
2024/03/24 04:53:26;;;;;;;2.53;0.70;;;;;;;;;;4941305;28;20054;-65
2024/03/24 04:55:52;;;;;;;2.58;1.20;;;;;;;;;;4950402;28;20058;-64
2024/03/24 04:58:19;;;;;;;1.85;0.45;;;;;;;;;;4966427;28;20066;-65
2024/03/24 05:00:46;;;;;;;1.80;0.70;;;;;;;;;;4985626;28;20062;-64
2024/03/24 05:03:13;;;;;;;2.55;0.80;;;;;;;;;;4950499;28;20050;-64
2024/03/24 05:05:45;;;;;;;6.22;0.80;;;;;;;;;;4981140;28;21910;-66
2024/03/24 05:08:14;;;;;;;0.75;0.63;;;;;;;;;;4972717;28;20057;-65
2024/03/24 05:10:41;;;;;;;3.85;0.73;;;;;;;;;;4979804;28;20278;-66
2024/03/24 05:13:08;;;;;;;1.25;0.70;;;;;;;;;;4985468;28;20058;-67
2024/03/24 05:15:36;;;;;;;2.53;0.70;;;;;;;;;;4967361;28;20145;-66
2024/03/24 05:18:08;;;;;;;4.78;0.73;;;;;;;;;;4964972;28;20065;-66
2024/03/24 05:20:35;;;;;;;1.55;0.68;;;;;;;;;;4987022;28;20066;-67
2024/03/24 05:23:03;;;;;;;2.55;0.68;;;;;;;;;;4966981;28;20064;-64
2024/03/24 05:25:29;;;;;;;4.67;0.77;;;;;;;;;;4983360;28;20069;-65
2024/03/24 05:27:55;;;;;;;3.20;0.70;;;;;;;;;;4970265;28;20395;-67
2024/03/24 05:30:21;;;;;;;2.15;0.73;;;;;;;;;;4989103;28;20140;-69
2024/03/24 05:32:48;;;;;;;1.15;0.50;;;;;;;;;;4928303;28;21023;-68
2024/03/24 05:35:19;;;;;;;4.22;0.93;;;;;;;;;;4980953;28;20057;-68
2024/03/24 05:37:47;;;;;;;2.63;0.90;;;;;;;;;;4969715;28;20061;-68
2024/03/24 05:40:13;;;;;;;2.25;0.65;;;;;;;;;;4985589;28;20058;-67
2024/03/24 05:42:40;;;;;;;3.40;1.38;;;;;;;;;;4982269;28;20061;-66
2024/03/24 05:45:10;;;;;;;2.65;0.85;;;;;;;;;;4989786;28;20073;-66
2024/03/24 05:47:37;;;;;;;2.97;0.68;;;;;;;;;;4985241;28;20058;-67
2024/03/24 05:50:03;;;;;;;2.47;0.77;;;;;;;;;;4973032;28;20050;-66
2024/03/24 05:52:36;;;;;;;4.25;0.63;;;;;;;;;;4958315;28;20265;-65
2024/03/24 05:55:04;;;;;;;1.65;0.63;;;;;;;;;;4971522;28;20165;-66
2024/03/24 05:57:31;;;;;;;2.20;0.75;;;;;;;;;;4973299;28;20163;-66
2024/03/24 05:59:57;;;;;;;3.88;0.80;;;;;;;;;;4977308;28;20058;-67
2024/03/24 06:02:25;;;;;;;1.70;0.65;;;;;;;;;;4966810;28;20262;-67
2024/03/24 06:04:51;;;;;;;2.80;0.90;;;;;;;;;;4973143;28;20085;-64
2024/03/24 06:07:17;;;;;;;2.67;0.70;;;;;;;;;;4966179;28;20065;-66
2024/03/24 06:09:45;;;;;;;4.60;0.90;;;;;;;;;;4989450;28;20058;-66
2024/03/24 06:12:12;;;;;;;0.95;0.38;;;;;;;;;;4975075;28;20059;-64
2024/03/24 06:14:37;;;;;;;1.95;0.75;;;;;;;;;;4975185;28;20096;-66
2024/03/24 06:17:04;;;;;;;2.28;0.70;;;;;;;;;;4966383;28;20133;-65
2024/03/24 06:19:30;;;;;;;4.00;0.77;;;;;;;;;;4960978;28;20141;-67
2024/03/24 06:21:57;;;;;;;2.40;1.13;;;;;;;;;;4976347;28;20054;-66
2024/03/24 06:24:22;;;;;;;4.85;1.30;;;;;;;;;;4989479;28;21075;-65
2024/03/24 06:26:51;;;;;;;2.65;0.88;;;;;;;;;;4971394;28;20062;-66
2024/03/24 06:29:17;;;;;;;9.52;1.10;;;;;;;;;;4981296;28;20140;-67
2024/03/24 06:31:44;;;;;;;1.92;0.65;;;;;;;;;;4955171;28;20081;-66
2024/03/24 06:34:10;;;;;;;1.33;0.55;;;;;;;;;;4977728;28;20066;-66
2024/03/24 06:36:37;;;;;;;3.42;1.00;;;;;;;;;;4974436;28;20291;-66
2024/03/24 06:39:03;;;;;;;4.20;0.77;;;;;;;;;;4979060;28;20062;-65
2024/03/24 06:41:30;;;;;;;1.25;0.57;;;;;;;;;;4960659;28;20066;-64
2024/03/24 06:43:57;;;;;;;2.13;0.70;;;;;;;;;;4988407;28;20302;-64
2024/03/24 06:46:24;;;;;;;4.00;1.10;;;;;;;;;;4986880;28;20062;-65
2024/03/24 06:48:52;;;;;;;5.10;1.38;;;;;;;;;;4970368;28;20057;-65
2024/03/24 06:51:19;;;;;;;4.15;1.00;;;;;;;;;;4923494;28;20055;-69
2024/03/24 06:53:45;;;;;;;3.00;0.90;;;;;;;;;;4963442;28;20134;-66
2024/03/24 06:56:12;;;;;;;1.90;1.15;;;;;;;;;;4985262;28;20054;-65
2024/03/24 06:58:37;;;;;;;3.50;1.10;;;;;;;;;;4986855;28;20054;-65
2024/03/24 07:01:06;;;;;;;3.80;1.02;;;;;;;;;;4970420;28;20057;-65
2024/03/24 07:03:32;;;;;;;6.28;1.13;;;;;;;;;;4969566;28;20057;-64
2024/03/24 07:05:58;;;;;;;4.10;1.05;;;;;;;;;;4972837;28;20065;-65
2024/03/24 07:08:26;;;;;;;5.30;1.02;;;;;;;;;;4985962;28;20054;-64
2024/03/24 07:10:53;;;;;;;3.13;0.77;;;;;;;;;;4975986;28;21159;-64
2024/03/24 07:13:19;;;;;;;4.68;1.23;;;;;;;;;;4935046;28;20065;-66
2024/03/24 07:15:45;;;;;;;1.95;0.95;;;;;;;;;;4988418;28;20066;-65
2024/03/24 07:18:12;;;;;;;2.03;0.90;;;;;;;;;;4978549;28;20184;-64
2024/03/24 07:20:39;;;;;;;6.15;1.00;;;;;;;;;;4977800;28;20058;-63
2024/03/24 07:23:14;;;;;;;5.07;1.15;;;;;;;;;;4966238;28;21005;-65
2024/03/24 07:25:41;;;;;;;10.48;1.52;;;;;;;;;;4970536;28;20128;-64
2024/03/24 07:28:08;;;;;;;4.43;1.40;;;;;;;;;;4988078;28;20145;-64
2024/03/24 07:30:35;;;;;;;12.60;1.77;;;;;;;;;;4972673;28;20077;-66
2024/03/24 07:33:00;;;;;;;4.03;1.42;;;;;;;;;;4980187;28;20074;-66
2024/03/24 07:35:28;;;;;;;4.15;1.40;;;;;;;;;;4973367;28;21057;-65
2024/03/24 07:37:54;;;;;;;14.90;1.70;;;;;;;;;;4974768;28;20201;-65
2024/03/24 07:40:22;;;;;;;3.30;1.40;;;;;;;;;;4982458;28;20449;-65
2024/03/24 07:42:48;;;;;;;5.70;1.50;;;;;;;;;;4960883;28;20164;-66
2024/03/24 07:45:23;;;;;;;6.60;1.63;;;;;;;;;;4969551;28;20053;-66
2024/03/24 07:47:49;;;;;;;4.95;1.60;;;;;;;;;;4972979;28;21060;-66
2024/03/24 07:50:19;;;;;;;4.40;1.80;;;;;;;;;;4975850;28;20061;-65
2024/03/24 07:52:47;;;;;;;6.45;1.70;;;;;;;;;;4977538;28;20053;-64
2024/03/24 07:55:13;;;;;;;7.10;1.75;;;;;;;;;;4978397;28;20082;-66
2024/03/24 07:57:39;;;;;;;7.32;1.77;;;;;;;;;;4990281;28;20054;-64
2024/03/24 08:00:12;;;;;;;7.95;1.75;;;;;;;;;;4973091;28;20050;-65
2024/03/24 08:02:38;;;;;;;6.82;1.58;;;;;;;;;;4921895;28;20058;-64
2024/03/24 08:05:08;;;;;;;9.25;1.83;;;;;;;;;;4969777;28;20064;-65
2024/03/24 08:07:41;;;;;;;9.77;2.05;;;;;;;;;;4983119;28;20061;-65
2024/03/24 08:10:13;;;;;;;8.70;2.05;;;;;;;;;;4992356;28;20061;-66
2024/03/24 08:12:40;;;;;;;7.35;1.70;;;;;;;;;;4959473;28;20064;-66
2024/03/24 08:15:09;;;;;;;10.00;2.05;;;;;;;;;;4980648;28;20184;-66
2024/03/24 08:17:37;;;;;;;10.25;2.22;;;;;;;;;;4968962;28;20058;-66
2024/03/24 08:20:06;;;;;;;10.25;2.13;;;;;;;;;;4995207;28;20064;-64
2024/03/24 08:22:31;;;;;;;;;;;;;;;;;;4970098;28;21075;-66
2024/03/24 08:24:58;;;;;;;9.82;1.58;;;;;;;;;;4970773;28;19922;-66
2024/03/24 08:27:25;;;;;;;7.05;1.65;;;;;;;;;;4984564;28;20151;-65
2024/03/24 08:29:52;;;;;;;6.68;1.98;;;;;;;;;;4972701;28;20062;-64
2024/03/24 08:32:19;;;;;;;15.27;2.13;;;;;;;;;;4967054;28;20180;-67
2024/03/24 08:34:47;;;;;;;6.90;1.70;;;;;;;;;;4969041;28;20049;-66
2024/03/24 08:37:15;;;;;;;9.00;1.95;;;;;;;;;;4989912;28;20053;-66
2024/03/24 08:39:42;;;;;;;6.90;1.80;;;;;;;;;;4968278;28;21137;-65
2024/03/24 08:42:08;;;;;;;9.77;1.92;;;;;;;;;;4956010;28;20446;-66
2024/03/24 08:44:36;;;;;;;7.82;1.85;;;;;;;;;;4974017;28;20064;-64
2024/03/24 08:47:02;;;;;;;8.57;2.17;;;;;;;;;;4973037;28;20061;-65
2024/03/24 08:49:29;;;;;;;8.32;1.77;;;;;;;;;;4986813;28;20053;-67
2024/03/24 08:51:54;;;;;;;13.85;2.47;;;;;;;;;;4943173;28;20123;-65
2024/03/24 08:54:24;;;;;;;14.30;2.55;;;;;;;;;;4977036;28;20072;-66
2024/03/24 08:56:53;;;;;;;7.03;1.70;;;;;;;;;;4990914;28;20160;-68
2024/03/24 08:59:20;;;;;;;3.60;1.40;;;;;;;;;;4981489;28;20057;-66
2024/03/24 09:01:47;;;;;;;9.15;1.92;;;;;;;;;;4954583;28;20082;-66
2024/03/24 09:04:14;;;;;;;7.25;2.13;;;;;;;;;;4971792;28;20074;-67
2024/03/24 09:06:40;;;;;;;4.60;1.67;;;;;;;;;;4989591;28;20151;-66
2024/03/24 09:09:08;;;;;;;7.68;2.20;;;;;;;;;;4973490;28;20049;-66
2024/03/24 09:11:33;;;;;;;7.32;1.40;;;;;;;;;;4953113;28;20135;-65
2024/03/24 09:14:00;;;;;;;2.75;1.25;;;;;;;;;;4973426;28;20057;-66
2024/03/24 09:16:26;;;;;;;3.78;1.50;;;;;;;;;;4980559;28;20089;-67
2024/03/24 09:19:04;;;;;;;;;;;;;;;;;;;;;
2024/03/24 09:21:33;;;;;;;9.18;2.10;;;;;;;;;;4953090;28;20086;-67
2024/03/24 09:23:59;;;;;;;6.18;1.60;;;;;;;;;;4976595;28;20050;-65
2024/03/24 09:26:25;;;;;;;8.70;2.05;;;;;;;;;;4988002;28;20095;-66
2024/03/24 09:28:52;;;;;;;9.48;1.73;;;;;;;;;;4974809;28;20053;-64
2024/03/24 09:31:18;;;;;;;4.88;1.40;;;;;;;;;;4981218;28;20164;-65
2024/03/24 09:33:44;;;;;;;7.22;1.35;;;;;;;;;;4946195;28;20046;-65
2024/03/24 09:36:15;;;;;;;7.45;1.17;;;;;;;;;;4970030;28;20060;-68
2024/03/24 09:38:41;;;;;;;3.70;1.17;;;;;;;;;;4968041;28;20089;-64
2024/03/24 09:41:15;;;;;;;4.00;1.10;;;;;;;;;;4976866;28;20141;-67
2024/03/24 09:43:48;;;;;;;1.67;0.82;;;;;;;;;;4934826;28;20101;-67
2024/03/24 09:46:18;;;;;;;3.33;0.98;;;;;;;;;;4967172;28;20079;-65
2024/03/24 09:48:46;;;;;;;6.05;1.45;;;;;;;;;;4988231;28;20062;-67
2024/03/24 09:51:22;;;;;;;7.68;1.85;;;;;;;;;;4982176;28;20129;-67
2024/03/24 09:53:49;;;;;;;2.42;0.95;;;;;;;;;;4968920;28;20103;-65
2024/03/24 09:56:20;;;;;;;1.73;0.70;;;;;;;;;;4970793;28;20057;-65
2024/03/24 09:58:51;;;;;;;6.28;1.25;;;;;;;;;;4972344;28;20067;-64
2024/03/24 10:01:17;;;;;;;1.85;0.80;;;;;;;;;;4934374;28;20082;-66
2024/03/24 10:03:46;;;;;;;5.68;1.00;;;;;;;;;;4959142;28;20169;-65
2024/03/24 10:06:15;;;;;;;1.90;0.60;;;;;;;;;;4948608;28;20070;-65
2024/03/24 10:08:44;;;;;;;4.15;0.70;;;;;;;;;;4945958;28;20051;-65
2024/03/24 10:11:30;;;;;;;2.95;0.85;;;;;;;;;;4933813;28;20078;-66
2024/03/24 10:13:58;;;;;;;4.28;1.17;;;;;;;;;;4943550;28;20058;-65
2024/03/24 10:16:25;;;;;;;9.07;1.40;;;;;;;;;;4950903;28;20066;-66
2024/03/24 10:18:52;;;;;;;2.20;0.57;;;;;;;;;;4962665;28;20082;-66
2024/03/24 10:21:18;;;;;;;5.40;1.30;;;;;;;;;;4939971;28;20325;-66
2024/03/24 10:23:49;;;;;;;4.18;0.65;;;;;;;;;;4946010;28;20066;-66
2024/03/24 10:26:18;;;;;;;6.35;2.00;;;;;;;;;;4946169;28;20047;-66
2024/03/24 10:28:48;;;;;;;4.15;0.85;;;;;;;;;;4944361;28;20154;-68
2024/03/24 10:31:17;;;;;;;5.30;0.85;;;;;;;;;;4936383;28;20047;-66
2024/03/24 10:33:49;;;;;;;9.65;2.10;;;;;;;;;;4933831;28;20058;-66
2024/03/24 10:36:17;;;;;;;10.38;1.95;;;;;;;;;;4945765;28;20074;-68
2024/03/24 10:38:45;;;;;;;10.20;1.70;;;;;;;;;;4949834;28;20177;-66
2024/03/24 10:41:15;;;;;;;4.90;1.10;;;;;;;;;;4945552;28;20113;-65
2024/03/24 10:43:48;;;;;;;6.22;1.13;;;;;;;;;;4921428;28;20062;-65
2024/03/24 10:46:17;;;;;;;2.13;0.77;;;;;;;;;;4961505;28;20809;-66
2024/03/24 10:48:44;;;;;;;;;;;;;;;;;;4962930;28;20214;-66
2024/03/24 10:51:13;;;;;;;6.47;1.05;;;;;;;;;;4939148;28;19933;-67
2024/03/24 10:53:42;;;;;;;3.45;0.85;;;;;;;;;;4926463;28;20149;-67
2024/03/24 10:56:11;;;;;;;6.80;1.45;;;;;;;;;;4949303;28;20055;-68
2024/03/24 10:58:38;;;;;;;;;;;;;;;;;;4968698;28;20065;-68
2024/03/24 11:01:07;;;;;;;2.83;0.82;;;;;;;;;;4988438;28;19929;-67
2024/03/24 11:03:35;;;;;;;4.82;1.00;;;;;;;;;;4909004;28;20066;-68
2024/03/24 11:06:03;;;;;;;4.25;0.70;;;;;;;;;;4980112;28;20145;-68
2024/03/24 11:08:29;;;;;;;11.27;1.33;;;;;;;;;;4972580;28;20054;-69
2024/03/24 11:10:56;;;;;;;5.50;1.27;;;;;;;;;;4971928;28;20065;-68
2024/03/24 11:13:29;;;;;;;7.20;1.23;;;;;;;;;;4924247;28;20057;-67
2024/03/24 11:16:01;;;;;;;10.75;1.42;;;;;;;;;;4988185;28;20109;-67
2024/03/24 11:18:29;;;;;;;3.83;1.08;;;;;;;;;;4977167;28;20073;-68
2024/03/24 11:20:57;;;;;;;4.50;1.30;;;;;;;;;;4987652;28;20050;-68
2024/03/24 11:23:34;;;;;;;8.00;1.50;;;;;;;;;;4909214;28;20062;-67
2024/03/24 11:26:02;;;;;;;10.57;1.30;;;;;;;;;;4987594;28;20915;-67
2024/03/24 11:28:44;;;;;;;7.30;1.20;;;;;;;;;;4988071;28;20053;-67
2024/03/24 11:31:18;;;;;;;9.73;1.90;;;;;;;;;;4983319;28;20058;-67
2024/03/24 11:33:46;;;;;;;5.40;1.08;;;;;;;;;;4980982;28;20125;-67
2024/03/24 11:36:16;;;;;;;9.48;1.90;;;;;;;;;;4969949;28;20046;-67
2024/03/24 11:38:47;;;;;;;11.07;1.70;;;;;;;;;;4969032;28;20049;-67
2024/03/24 11:41:14;;;;;;;8.60;1.30;;;;;;;;;;4970281;28;20046;-68
2024/03/24 11:43:41;;;;;;;6.90;1.50;;;;;;;;;;4953583;28;20068;-67
2024/03/24 11:46:11;;;;;;;10.68;1.52;;;;;;;;;;4983988;28;20062;-67
2024/03/24 11:48:38;;;;;;;9.00;1.50;;;;;;;;;;4967491;28;20066;-67
2024/03/24 11:51:08;;;;;;;6.95;2.05;;;;;;;;;;4971862;28;20140;-67
2024/03/24 11:53:35;;;;;;;6.25;1.52;;;;;;;;;;4925886;28;20054;-68
2024/03/24 11:56:03;;;;;;;6.63;1.15;;;;;;;;;;4970956;28;20050;-69
2024/03/24 11:58:30;;;;;;;6.88;1.00;;;;;;;;;;4969639;28;20064;-67
2024/03/24 12:01:00;;;;;;;3.70;0.77;;;;;;;;;;4988161;28;20060;-66
2024/03/24 12:03:28;;;;;;;8.20;1.27;;;;;;;;;;4921453;28;20057;-68
2024/03/24 12:05:57;;;;;;;0.55;0.30;;;;;;;;;;4976769;28;20150;-66
2024/03/24 12:08:29;;;;;;;7.68;0.95;;;;;;;;;;4972215;28;20061;-67
2024/03/24 12:10:55;;;;;;;8.15;1.20;;;;;;;;;;4973866;28;20057;-68
2024/03/24 12:13:22;;;;;;;6.78;1.63;;;;;;;;;;4962541;28;20069;-66
2024/03/24 12:15:51;;;;;;;8.60;1.45;;;;;;;;;;4991017;28;20065;-65
2024/03/24 12:18:18;;;;;;;4.72;0.98;;;;;;;;;;4972862;28;20140;-66
2024/03/24 12:20:45;;;;;;;7.63;1.30;;;;;;;;;;4972775;28;20064;-68
2024/03/24 12:23:13;;;;;;;9.05;1.15;;;;;;;;;;4964125;28;20215;-66
2024/03/24 12:25:43;;;;;;;5.90;1.17;;;;;;;;;;4969793;28;20049;-68
2024/03/24 12:28:15;;;;;;;5.30;1.55;;;;;;;;;;4976939;28;20121;-69
2024/03/24 12:30:48;;;;;;;5.25;1.50;;;;;;;;;;4981579;28;20069;-67
2024/03/24 12:33:15;;;;;;;10.48;1.42;;;;;;;;;;4937721;28;20046;-68
2024/03/24 12:35:41;;;;;;;7.93;1.40;;;;;;;;;;4966331;28;20057;-68
2024/03/24 12:38:13;;;;;;;8.57;2.00;;;;;;;;;;4973031;28;20049;-68
2024/03/24 12:40:47;;;;;;;12.45;1.80;;;;;;;;;;4974002;28;20062;-69
2024/03/24 12:43:24;;;;;;;5.20;1.25;;;;;;;;;;4939417;28;20054;-69
2024/03/24 12:45:51;;;;;;;9.00;1.70;;;;;;;;;;4972897;28;20069;-68
2024/03/24 12:48:18;;;;;;;11.30;1.40;;;;;;;;;;4992003;28;20046;-68
2024/03/24 12:50:47;;;;;;;6.97;0.82;;;;;;;;;;4974192;28;20182;-67
2024/03/24 12:53:42;;;;;;;9.45;1.80;;;;;;;;;;4901638;28;20051;-68
2024/03/24 12:56:11;;;;;;;5.53;0.90;;;;;;;;;;4969550;28;20064;-69
2024/03/24 12:58:46;;;;;;;1.95;0.73;;;;;;;;;;4988914;28;20236;-70
2024/03/24 13:01:13;;;;;;;3.15;0.88;;;;;;;;;;4968790;28;20058;-69
2024/03/24 13:03:42;;;;;;;3.27;1.13;;;;;;;;;;4960316;28;20054;-68
2024/03/24 13:06:12;;;;;;;5.45;1.23;;;;;;;;;;4971041;28;20421;-69
2024/03/24 13:08:41;;;;;;;6.32;0.90;;;;;;;;;;4969684;28;20093;-68
2024/03/24 13:11:10;;;;;;;5.20;1.30;;;;;;;;;;4992232;28;20161;-68
2024/03/24 13:13:38;;;;;;;;;;;;;;;;;;4952032;28;20129;-67
2024/03/24 13:16:06;;;;;;;13.03;1.10;;;;;;;;;;4971144;28;19936;-69
2024/03/24 13:18:41;;;;;;;4.57;0.98;;;;;;;;;;4973739;28;20109;-70
2024/03/24 13:21:12;;;;;;;7.38;1.13;;;;;;;;;;4989521;28;20058;-68
2024/03/24 13:23:44;;;;;;;8.93;1.42;;;;;;;;;;4956909;28;20227;-69
2024/03/24 13:26:11;;;;;;;9.85;2.00;;;;;;;;;;4970507;28;20053;-69
2024/03/24 13:28:38;;;;;;;9.70;2.08;;;;;;;;;;4974141;28;20057;-68
2024/03/24 13:31:04;;;;;;;10.13;1.70;;;;;;;;;;4989084;28;20065;-69
2024/03/24 13:33:30;;;;;;;6.00;1.63;;;;;;;;;;4941964;28;20057;-68
2024/03/24 13:35:57;;;;;;;6.60;1.10;;;;;;;;;;4964855;28;20386;-68
2024/03/24 13:38:32;;;;;;;7.25;1.10;;;;;;;;;;4988755;28;20060;-68
2024/03/24 13:41:15;;;;;;;9.93;1.48;;;;;;;;;;4979786;28;20058;-68
2024/03/24 13:44:02;;;;;;;5.35;1.08;;;;;;;;;;4951142;28;20057;-67
2024/03/24 13:46:33;;;;;;;6.75;1.17;;;;;;;;;;4972658;28;20081;-69
2024/03/24 13:49:01;;;;;;;4.00;0.88;;;;;;;;;;4988824;28;20181;-68
2024/03/24 13:51:31;;;;;;;6.57;1.00;;;;;;;;;;4968434;28;20062;-68
2024/03/24 13:53:59;;;;;;;7.75;1.40;;;;;;;;;;4969623;28;20220;-68
2024/03/24 13:56:26;;;;;;;;;;;;;;;;;;4971430;28;20147;-70
2024/03/24 13:58:53;;;;;;;3.88;1.10;;;;;;;;;;4986581;28;19930;-70
2024/03/24 14:01:20;;;;;;;7.15;0.98;;;;;;;;;;4965573;28;20145;-69
2024/03/24 14:03:51;;;;;;;10.60;1.00;;;;;;;;;;4945532;28;20046;-68
2024/03/24 14:06:24;;;;;;;4.03;0.90;;;;;;;;;;4989898;28;20072;-67
2024/03/24 14:08:51;;;;;;;4.55;1.13;;;;;;;;;;4966099;28;20060;-67
2024/03/24 14:11:21;;;;;;;4.78;1.42;;;;;;;;;;4974006;28;20054;-67
2024/03/24 14:14:07;;;;;;;3.45;0.93;;;;;;;;;;4941664;28;20131;-68
2024/03/24 14:16:47;;;;;;;9.77;1.05;;;;;;;;;;4990255;28;20069;-67
2024/03/24 14:19:24;;;;;;;9.73;1.80;;;;;;;;;;4971160;28;20498;-69
2024/03/24 14:22:02;;;;;;;5.45;1.38;;;;;;;;;;4987639;28;20053;-67
2024/03/24 14:24:42;;;;;;;8.40;1.07;;;;;;;;;;4931438;28;20061;-67
2024/03/24 14:27:14;;;;;;;7.65;1.10;;;;;;;;;;4979669;28;20301;-67
2024/03/24 14:29:43;;;;;;;9.70;1.00;;;;;;;;;;4965721;28;21394;-67
2024/03/24 14:32:10;;;;;;;11.45;1.15;;;;;;;;;;4986640;28;20076;-69
2024/03/24 14:34:38;;;;;;;6.93;1.48;;;;;;;;;;4949254;28;20082;-67
2024/03/24 14:37:23;;;;;;;7.63;1.33;;;;;;;;;;4973604;28;20097;-68
2024/03/24 14:40:21;;;;;;;5.85;1.25;;;;;;;;;;4970259;28;20077;-69
2024/03/24 14:43:01;;;;;;;4.90;0.80;;;;;;;;;;4964325;28;20053;-68
2024/03/24 14:45:58;;;;;;;5.15;1.10;;;;;;;;;;4981864;28;20231;-67
2024/03/24 14:48:26;;;;;;;2.90;1.23;;;;;;;;;;4989522;28;20084;-67
2024/03/24 14:50:56;;;;;;;2.58;0.80;;;;;;;;;;4987462;28;20136;-66
2024/03/24 14:53:22;;;;;;;13.68;2.03;;;;;;;;;;4937036;28;20065;-68
2024/03/24 14:55:49;;;;;;;5.82;1.10;;;;;;;;;;4985805;28;20058;-67
2024/03/24 14:58:18;;;;;;;6.05;1.15;;;;;;;;;;4969480;28;20072;-65